Аэропорт: Черкассы. Черкассы

ICAO: UKKE

METAR:
2017/11/14 09:00
UKKE 140900Z 33008MPS 4000 -DZ BR OVC009 09/08 Q1013 R32/190065
METAR:
Информация по данной станции не доступна